Terminal Aerodrome Forecast
Issued by NWS

Home | Current Version | Previous Version | Text Only | Print | Product List | Glossary On
Versions: 1 2 3 4 5 6 7 8 9 10 11 12 13 14 15 16 17 18
000
FTUS43 KAPX 290521
TAFMBL
TAF
KMBL 290521Z 2906/3006 14009KT P6SM VCSH OVC015
     FM291500 15009KT P6SM OVC012 WS020/19030KT
     FM292300 20008KT P6SM OVC012 WS020/21032KT
      AMD LTD TO CLD VIS AND WIND=

USA.gov is the U.S. government's official web portal to all federal, state and local government web resources and services.